sensor_id;sensor_type;location;lat;lon;timestamp;P1;durP1;ratioP1;P2;durP2;ratioP2
22441;SDS011;11388;54.456;9.752;2023-01-09T00:01:45;3.90;;;2.50;;
22441;SDS011;11388;54.456;9.752;2023-01-09T00:04:13;4.25;;;2.80;;
22441;SDS011;11388;54.456;9.752;2023-01-09T00:06:39;4.50;;;2.97;;
22441;SDS011;11388;54.456;9.752;2023-01-09T00:09:07;3.85;;;2.72;;
22441;SDS011;11388;54.456;9.752;2023-01-09T00:11:33;4.82;;;3.20;;
22441;SDS011;11388;54.456;9.752;2023-01-09T00:13:59;4.30;;;3.20;;
22441;SDS011;11388;54.456;9.752;2023-01-09T00:16:25;5.82;;;3.20;;
22441;SDS011;11388;54.456;9.752;2023-01-09T00:18:51;4.20;;;3.22;;
22441;SDS011;11388;54.456;9.752;2023-01-09T00:21:17;4.90;;;3.63;;
22441;SDS011;11388;54.456;9.752;2023-01-09T00:23:46;3.78;;;3.10;;
22441;SDS011;11388;54.456;9.752;2023-01-09T00:26:16;4.68;;;3.60;;
22441;SDS011;11388;54.456;9.752;2023-01-09T00:28:44;4.15;;;3.70;;
22441;SDS011;11388;54.456;9.752;2023-01-09T00:31:11;4.88;;;3.70;;
22441;SDS011;11388;54.456;9.752;2023-01-09T00:36:09;4.38;;;3.20;;
22441;SDS011;11388;54.456;9.752;2023-01-09T00:38:36;4.55;;;3.40;;
22441;SDS011;11388;54.456;9.752;2023-01-09T00:41:03;5.40;;;3.78;;
22441;SDS011;11388;54.456;9.752;2023-01-09T00:43:33;6.82;;;3.72;;
22441;SDS011;11388;54.456;9.752;2023-01-09T00:46:03;5.88;;;3.40;;
22441;SDS011;11388;54.456;9.752;2023-01-09T00:48:30;4.10;;;3.60;;
22441;SDS011;11388;54.456;9.752;2023-01-09T00:50:57;4.13;;;3.22;;
22441;SDS011;11388;54.456;9.752;2023-01-09T00:53:27;5.10;;;3.20;;
22441;SDS011;11388;54.456;9.752;2023-01-09T00:55:57;3.35;;;2.70;;
22441;SDS011;11388;54.456;9.752;2023-01-09T00:58:25;4.45;;;3.38;;
22441;SDS011;11388;54.456;9.752;2023-01-09T01:00:50;4.78;;;3.50;;
22441;SDS011;11388;54.456;9.752;2023-01-09T01:03:16;3.97;;;3.08;;
22441;SDS011;11388;54.456;9.752;2023-01-09T01:05:42;4.40;;;3.40;;
22441;SDS011;11388;54.456;9.752;2023-01-09T01:08:26;4.75;;;3.10;;
22441;SDS011;11388;54.456;9.752;2023-01-09T01:10:52;4.53;;;3.20;;
22441;SDS011;11388;54.456;9.752;2023-01-09T01:13:17;3.90;;;3.20;;
22441;SDS011;11388;54.456;9.752;2023-01-09T01:15:43;4.65;;;3.30;;
22441;SDS011;11388;54.456;9.752;2023-01-09T01:18:10;4.03;;;2.80;;
22441;SDS011;11388;54.456;9.752;2023-01-09T01:20:41;4.72;;;2.92;;
22441;SDS011;11388;54.456;9.752;2023-01-09T01:23:09;3.45;;;2.70;;
22441;SDS011;11388;54.456;9.752;2023-01-09T01:25:39;4.95;;;2.95;;
22441;SDS011;11388;54.456;9.752;2023-01-09T01:28:05;3.85;;;2.92;;
22441;SDS011;11388;54.456;9.752;2023-01-09T01:30:32;4.63;;;3.15;;
22441;SDS011;11388;54.456;9.752;2023-01-09T01:33:01;4.40;;;2.67;;
22441;SDS011;11388;54.456;9.752;2023-01-09T01:35:26;3.65;;;2.60;;
22441;SDS011;11388;54.456;9.752;2023-01-09T01:37:52;3.45;;;2.50;;
22441;SDS011;11388;54.456;9.752;2023-01-09T01:40:18;4.15;;;2.60;;
22441;SDS011;11388;54.456;9.752;2023-01-09T01:42:48;3.45;;;2.63;;
22441;SDS011;11388;54.456;9.752;2023-01-09T01:45:17;3.60;;;2.60;;
22441;SDS011;11388;54.456;9.752;2023-01-09T01:58:35;3.88;;;2.50;;
22441;SDS011;11388;54.456;9.752;2023-01-09T02:01:05;3.95;;;2.40;;
22441;SDS011;11388;54.456;9.752;2023-01-09T02:03:32;3.10;;;2.40;;
22441;SDS011;11388;54.456;9.752;2023-01-09T02:05:59;3.28;;;2.20;;
22441;SDS011;11388;54.456;9.752;2023-01-09T02:08:25;3.42;;;2.40;;
22441;SDS011;11388;54.456;9.752;2023-01-09T02:10:51;3.80;;;2.00;;
22441;SDS011;11388;54.456;9.752;2023-01-09T02:13:18;3.10;;;2.10;;
22441;SDS011;11388;54.456;9.752;2023-01-09T02:18:30;4.20;;;1.95;;
22441;SDS011;11388;54.456;9.752;2023-01-09T02:21:36;3.65;;;1.98;;
22441;SDS011;11388;54.456;9.752;2023-01-09T02:24:15;4.50;;;2.10;;
22441;SDS011;11388;54.456;9.752;2023-01-09T02:35:11;2.40;;;1.77;;
22441;SDS011;11388;54.456;9.752;2023-01-09T02:38:40;2.47;;;1.73;;
22441;SDS011;11388;54.456;9.752;2023-01-09T02:40:52;3.08;;;1.60;;
22441;SDS011;11388;54.456;9.752;2023-01-09T02:43:24;2.13;;;1.67;;
22441;SDS011;11388;54.456;9.752;2023-01-09T02:45:51;3.42;;;1.70;;
22441;SDS011;11388;54.456;9.752;2023-01-09T02:48:19;4.65;;;1.90;;
22441;SDS011;11388;54.456;9.752;2023-01-09T02:51:34;2.40;;;1.52;;
22441;SDS011;11388;54.456;9.752;2023-01-09T02:54:03;3.90;;;2.00;;
22441;SDS011;11388;54.456;9.752;2023-01-09T03:03:05;2.88;;;1.83;;
22441;SDS011;11388;54.456;9.752;2023-01-09T03:06:01;2.97;;;1.85;;
22441;SDS011;11388;54.456;9.752;2023-01-09T03:08:44;2.95;;;1.80;;
22441;SDS011;11388;54.456;9.752;2023-01-09T03:11:24;2.92;;;1.80;;
22441;SDS011;11388;54.456;9.752;2023-01-09T03:13:53;3.45;;;1.90;;
22441;SDS011;11388;54.456;9.752;2023-01-09T03:16:27;2.97;;;1.90;;
22441;SDS011;11388;54.456;9.752;2023-01-09T03:18:56;3.08;;;1.95;;
22441;SDS011;11388;54.456;9.752;2023-01-09T03:21:24;4.38;;;1.80;;
22441;SDS011;11388;54.456;9.752;2023-01-09T03:23:55;2.30;;;1.80;;
22441;SDS011;11388;54.456;9.752;2023-01-09T03:26:23;3.22;;;1.90;;
22441;SDS011;11388;54.456;9.752;2023-01-09T03:28:49;2.95;;;1.80;;
22441;SDS011;11388;54.456;9.752;2023-01-09T03:31:15;2.25;;;1.70;;
22441;SDS011;11388;54.456;9.752;2023-01-09T03:33:41;2.85;;;1.70;;
22441;SDS011;11388;54.456;9.752;2023-01-09T03:36:11;2.47;;;1.60;;
22441;SDS011;11388;54.456;9.752;2023-01-09T03:38:38;2.75;;;1.88;;
22441;SDS011;11388;54.456;9.752;2023-01-09T03:41:04;3.45;;;1.80;;
22441;SDS011;11388;54.456;9.752;2023-01-09T03:43:30;2.90;;;1.73;;
22441;SDS011;11388;54.456;9.752;2023-01-09T03:45:56;2.13;;;1.65;;
22441;SDS011;11388;54.456;9.752;2023-01-09T03:48:22;2.80;;;1.73;;
22441;SDS011;11388;54.456;9.752;2023-01-09T03:50:48;3.35;;;1.60;;
22441;SDS011;11388;54.456;9.752;2023-01-09T03:53:15;3.40;;;2.00;;
22441;SDS011;11388;54.456;9.752;2023-01-09T03:55:44;2.38;;;1.77;;
22441;SDS011;11388;54.456;9.752;2023-01-09T03:58:11;2.60;;;1.77;;
22441;SDS011;11388;54.456;9.752;2023-01-09T04:00:37;2.30;;;1.65;;
22441;SDS011;11388;54.456;9.752;2023-01-09T04:03:04;3.17;;;1.90;;
22441;SDS011;11388;54.456;9.752;2023-01-09T04:05:30;3.45;;;2.00;;
22441;SDS011;11388;54.456;9.752;2023-01-09T04:07:56;2.95;;;1.90;;
22441;SDS011;11388;54.456;9.752;2023-01-09T04:10:21;3.88;;;2.10;;
22441;SDS011;11388;54.456;9.752;2023-01-09T04:12:47;3.60;;;2.05;;
22441;SDS011;11388;54.456;9.752;2023-01-09T04:15:13;3.33;;;1.70;;
22441;SDS011;11388;54.456;9.752;2023-01-09T04:17:38;3.17;;;2.03;;
22441;SDS011;11388;54.456;9.752;2023-01-09T04:20:04;3.38;;;2.00;;
22441;SDS011;11388;54.456;9.752;2023-01-09T04:22:32;3.72;;;2.20;;
22441;SDS011;11388;54.456;9.752;2023-01-09T04:24:58;2.55;;;2.10;;
22441;SDS011;11388;54.456;9.752;2023-01-09T04:27:23;4.57;;;2.10;;
22441;SDS011;11388;54.456;9.752;2023-01-09T04:29:49;3.58;;;2.28;;
22441;SDS011;11388;54.456;9.752;2023-01-09T04:32:15;3.33;;;2.60;;
22441;SDS011;11388;54.456;9.752;2023-01-09T04:34:40;5.07;;;2.60;;
22441;SDS011;11388;54.456;9.752;2023-01-09T04:37:06;2.92;;;2.50;;
22441;SDS011;11388;54.456;9.752;2023-01-09T04:39:32;3.90;;;2.67;;
22441;SDS011;11388;54.456;9.752;2023-01-09T04:41:57;3.58;;;2.40;;
22441;SDS011;11388;54.456;9.752;2023-01-09T04:44:24;3.95;;;2.45;;
22441;SDS011;11388;54.456;9.752;2023-01-09T04:46:54;4.40;;;2.55;;
22441;SDS011;11388;54.456;9.752;2023-01-09T04:49:22;3.03;;;2.40;;
22441;SDS011;11388;54.456;9.752;2023-01-09T04:51:48;3.70;;;2.80;;
22441;SDS011;11388;54.456;9.752;2023-01-09T04:54:14;3.70;;;2.65;;
22441;SDS011;11388;54.456;9.752;2023-01-09T04:56:40;3.95;;;3.08;;
22441;SDS011;11388;54.456;9.752;2023-01-09T04:59:06;3.85;;;2.97;;
22441;SDS011;11388;54.456;9.752;2023-01-09T05:01:32;4.55;;;3.42;;
22441;SDS011;11388;54.456;9.752;2023-01-09T05:03:58;4.53;;;3.20;;
22441;SDS011;11388;54.456;9.752;2023-01-09T05:06:24;5.18;;;3.00;;
22441;SDS011;11388;54.456;9.752;2023-01-09T05:08:49;4.32;;;3.17;;
22441;SDS011;11388;54.456;9.752;2023-01-09T05:11:15;4.22;;;3.30;;
22441;SDS011;11388;54.456;9.752;2023-01-09T05:13:41;5.07;;;3.55;;
22441;SDS011;11388;54.456;9.752;2023-01-09T05:16:06;3.60;;;3.10;;
22441;SDS011;11388;54.456;9.752;2023-01-09T05:18:32;4.13;;;3.35;;
22441;SDS011;11388;54.456;9.752;2023-01-09T05:21:01;3.42;;;3.10;;
22441;SDS011;11388;54.456;9.752;2023-01-09T05:23:27;6.10;;;3.70;;
22441;SDS011;11388;54.456;9.752;2023-01-09T05:25:52;4.32;;;3.53;;
22441;SDS011;11388;54.456;9.752;2023-01-09T05:28:18;3.63;;;2.78;;
22441;SDS011;11388;54.456;9.752;2023-01-09T05:30:44;4.15;;;2.60;;
22441;SDS011;11388;54.456;9.752;2023-01-09T05:33:11;3.35;;;2.80;;
22441;SDS011;11388;54.456;9.752;2023-01-09T05:35:36;4.38;;;2.25;;
22441;SDS011;11388;54.456;9.752;2023-01-09T05:38:02;2.50;;;2.30;;
22441;SDS011;11388;54.456;9.752;2023-01-09T05:40:28;3.15;;;2.10;;
22441;SDS011;11388;54.456;9.752;2023-01-09T05:42:53;2.85;;;2.30;;
22441;SDS011;11388;54.456;9.752;2023-01-09T05:45:19;4.05;;;2.53;;
22441;SDS011;11388;54.456;9.752;2023-01-09T05:47:45;3.38;;;2.42;;
22441;SDS011;11388;54.456;9.752;2023-01-09T05:50:11;3.00;;;2.50;;
22441;SDS011;11388;54.456;9.752;2023-01-09T05:52:37;3.75;;;2.40;;
22441;SDS011;11388;54.456;9.752;2023-01-09T05:55:04;3.53;;;2.60;;
22441;SDS011;11388;54.456;9.752;2023-01-09T05:57:30;3.30;;;2.60;;
22441;SDS011;11388;54.456;9.752;2023-01-09T05:59:56;3.88;;;3.10;;
22441;SDS011;11388;54.456;9.752;2023-01-09T06:02:22;4.00;;;3.00;;
22441;SDS011;11388;54.456;9.752;2023-01-09T06:04:47;3.95;;;2.95;;
22441;SDS011;11388;54.456;9.752;2023-01-09T06:07:13;3.72;;;2.55;;
22441;SDS011;11388;54.456;9.752;2023-01-09T06:09:38;3.85;;;2.97;;
22441;SDS011;11388;54.456;9.752;2023-01-09T06:12:05;3.28;;;2.65;;
22441;SDS011;11388;54.456;9.752;2023-01-09T06:14:31;2.50;;;2.10;;
22441;SDS011;11388;54.456;9.752;2023-01-09T06:16:57;3.13;;;2.60;;
22441;SDS011;11388;54.456;9.752;2023-01-09T06:19:23;3.85;;;2.60;;
22441;SDS011;11388;54.456;9.752;2023-01-09T06:21:48;3.30;;;2.40;;
22441;SDS011;11388;54.456;9.752;2023-01-09T06:24:14;2.78;;;2.47;;
22441;SDS011;11388;54.456;9.752;2023-01-09T06:26:40;2.65;;;2.05;;
22441;SDS011;11388;54.456;9.752;2023-01-09T06:29:05;3.08;;;2.15;;
22441;SDS011;11388;54.456;9.752;2023-01-09T06:31:32;2.42;;;2.00;;
22441;SDS011;11388;54.456;9.752;2023-01-09T06:33:58;2.08;;;1.60;;
22441;SDS011;11388;54.456;9.752;2023-01-09T06:36:24;1.90;;;1.58;;
22441;SDS011;11388;54.456;9.752;2023-01-09T06:38:50;1.60;;;1.20;;
22441;SDS011;11388;54.456;9.752;2023-01-09T06:41:15;1.92;;;1.00;;
22441;SDS011;11388;54.456;9.752;2023-01-09T06:43:41;1.88;;;1.40;;
22441;SDS011;11388;54.456;9.752;2023-01-09T06:46:07;1.60;;;1.08;;
22441;SDS011;11388;54.456;9.752;2023-01-09T06:48:35;2.28;;;1.33;;
22441;SDS011;11388;54.456;9.752;2023-01-09T06:51:01;1.58;;;1.27;;
22441;SDS011;11388;54.456;9.752;2023-01-09T06:53:27;1.90;;;1.33;;
22441;SDS011;11388;54.456;9.752;2023-01-09T06:55:53;1.60;;;1.30;;
22441;SDS011;11388;54.456;9.752;2023-01-09T06:58:20;1.48;;;1.13;;
22441;SDS011;11388;54.456;9.752;2023-01-09T07:00:46;1.52;;;0.90;;
22441;SDS011;11388;54.456;9.752;2023-01-09T07:03:13;1.50;;;1.10;;
22441;SDS011;11388;54.456;9.752;2023-01-09T07:05:43;1.70;;;1.25;;
22441;SDS011;11388;54.456;9.752;2023-01-09T07:08:10;1.80;;;1.40;;
22441;SDS011;11388;54.456;9.752;2023-01-09T07:10:36;2.83;;;1.83;;
22441;SDS011;11388;54.456;9.752;2023-01-09T07:13:02;3.53;;;2.90;;
22441;SDS011;11388;54.456;9.752;2023-01-09T07:15:27;3.17;;;2.45;;
22441;SDS011;11388;54.456;9.752;2023-01-09T07:17:53;13.38;;;11.98;;
22441;SDS011;11388;54.456;9.752;2023-01-09T07:20:19;10.20;;;9.02;;
22441;SDS011;11388;54.456;9.752;2023-01-09T07:22:45;6.90;;;6.20;;
22441;SDS011;11388;54.456;9.752;2023-01-09T07:25:11;3.47;;;2.40;;
22441;SDS011;11388;54.456;9.752;2023-01-09T07:27:37;3.15;;;2.67;;
22441;SDS011;11388;54.456;9.752;2023-01-09T07:30:03;3.72;;;2.72;;
22441;SDS011;11388;54.456;9.752;2023-01-09T07:32:29;3.47;;;3.13;;
22441;SDS011;11388;54.456;9.752;2023-01-09T07:34:55;3.08;;;2.38;;
22441;SDS011;11388;54.456;9.752;2023-01-09T07:37:21;4.63;;;4.10;;
22441;SDS011;11388;54.456;9.752;2023-01-09T07:39:49;4.13;;;3.53;;
22441;SDS011;11388;54.456;9.752;2023-01-09T07:42:15;6.82;;;3.97;;
22441;SDS011;11388;54.456;9.752;2023-01-09T07:44:41;5.28;;;4.32;;
22441;SDS011;11388;54.456;9.752;2023-01-09T07:47:06;5.28;;;4.35;;
22441;SDS011;11388;54.456;9.752;2023-01-09T07:49:32;4.30;;;3.90;;
22441;SDS011;11388;54.456;9.752;2023-01-09T07:51:58;5.88;;;4.80;;
22441;SDS011;11388;54.456;9.752;2023-01-09T07:54:23;5.18;;;4.45;;
22441;SDS011;11388;54.456;9.752;2023-01-09T07:56:49;5.03;;;4.32;;
22441;SDS011;11388;54.456;9.752;2023-01-09T07:59:15;5.00;;;4.22;;
22441;SDS011;11388;54.456;9.752;2023-01-09T08:01:40;5.55;;;4.40;;
22441;SDS011;11388;54.456;9.752;2023-01-09T08:04:06;6.18;;;4.75;;
22441;SDS011;11388;54.456;9.752;2023-01-09T08:06:32;6.38;;;5.05;;
22441;SDS011;11388;54.456;9.752;2023-01-09T08:08:58;5.57;;;4.97;;
22441;SDS011;11388;54.456;9.752;2023-01-09T08:11:24;5.95;;;4.75;;
22441;SDS011;11388;54.456;9.752;2023-01-09T08:13:50;5.05;;;3.95;;
22441;SDS011;11388;54.456;9.752;2023-01-09T08:16:16;5.85;;;4.63;;
22441;SDS011;11388;54.456;9.752;2023-01-09T08:18:42;5.32;;;4.07;;
22441;SDS011;11388;54.456;9.752;2023-01-09T08:21:08;5.60;;;4.18;;
22441;SDS011;11388;54.456;9.752;2023-01-09T08:23:35;6.97;;;4.20;;
22441;SDS011;11388;54.456;9.752;2023-01-09T08:26:02;4.43;;;3.55;;
22441;SDS011;11388;54.456;9.752;2023-01-09T08:28:28;4.18;;;3.60;;
22441;SDS011;11388;54.456;9.752;2023-01-09T08:30:54;3.70;;;3.30;;
22441;SDS011;11388;54.456;9.752;2023-01-09T08:33:19;4.05;;;3.50;;
22441;SDS011;11388;54.456;9.752;2023-01-09T08:35:45;5.30;;;3.70;;
22441;SDS011;11388;54.456;9.752;2023-01-09T08:38:12;4.03;;;3.35;;
22441;SDS011;11388;54.456;9.752;2023-01-09T08:40:38;5.25;;;4.05;;
22441;SDS011;11388;54.456;9.752;2023-01-09T08:43:07;4.70;;;3.75;;
22441;SDS011;11388;54.456;9.752;2023-01-09T08:45:51;5.22;;;3.70;;
22441;SDS011;11388;54.456;9.752;2023-01-09T08:48:36;4.60;;;3.75;;
22441;SDS011;11388;54.456;9.752;2023-01-09T08:51:01;4.72;;;3.60;;
22441;SDS011;11388;54.456;9.752;2023-01-09T08:53:27;4.45;;;3.30;;
22441;SDS011;11388;54.456;9.752;2023-01-09T08:55:55;7.68;;;3.70;;
22441;SDS011;11388;54.456;9.752;2023-01-09T08:58:21;6.07;;;3.97;;
22441;SDS011;11388;54.456;9.752;2023-01-09T09:00:46;5.05;;;3.83;;
22441;SDS011;11388;54.456;9.752;2023-01-09T09:03:12;6.15;;;3.97;;
22441;SDS011;11388;54.456;9.752;2023-01-09T09:05:37;5.25;;;4.07;;
22441;SDS011;11388;54.456;9.752;2023-01-09T09:08:03;5.47;;;4.03;;
22441;SDS011;11388;54.456;9.752;2023-01-09T09:10:30;4.63;;;3.22;;
22441;SDS011;11388;54.456;9.752;2023-01-09T09:12:56;5.68;;;3.63;;
22441;SDS011;11388;54.456;9.752;2023-01-09T09:15:23;4.45;;;3.30;;
22441;SDS011;11388;54.456;9.752;2023-01-09T09:17:54;4.22;;;2.70;;
22441;SDS011;11388;54.456;9.752;2023-01-09T09:20:22;6.03;;;2.80;;
22441;SDS011;11388;54.456;9.752;2023-01-09T09:22:50;5.20;;;3.25;;
22441;SDS011;11388;54.456;9.752;2023-01-09T09:25:17;5.22;;;3.20;;
22441;SDS011;11388;54.456;9.752;2023-01-09T09:27:43;4.28;;;3.08;;
22441;SDS011;11388;54.456;9.752;2023-01-09T09:30:09;3.97;;;2.90;;
22441;SDS011;11388;54.456;9.752;2023-01-09T09:32:36;6.35;;;3.53;;
22441;SDS011;11388;54.456;9.752;2023-01-09T09:35:03;5.05;;;3.05;;
22441;SDS011;11388;54.456;9.752;2023-01-09T09:37:29;4.82;;;3.60;;
22441;SDS011;11388;54.456;9.752;2023-01-09T09:39:55;4.75;;;3.50;;
22441;SDS011;11388;54.456;9.752;2023-01-09T09:45:36;5.80;;;3.25;;
22441;SDS011;11388;54.456;9.752;2023-01-09T09:56:17;5.28;;;3.47;;
22441;SDS011;11388;54.456;9.752;2023-01-09T09:58:47;6.43;;;4.05;;
22441;SDS011;11388;54.456;9.752;2023-01-09T10:01:21;4.38;;;3.53;;
22441;SDS011;11388;54.456;9.752;2023-01-09T10:03:55;5.80;;;3.90;;
22441;SDS011;11388;54.456;9.752;2023-01-09T10:06:28;5.38;;;3.60;;
22441;SDS011;11388;54.456;9.752;2023-01-09T10:09:01;5.05;;;3.70;;
22441;SDS011;11388;54.456;9.752;2023-01-09T10:11:36;4.93;;;3.78;;
22441;SDS011;11388;54.456;9.752;2023-01-09T10:14:09;5.95;;;3.92;;
22441;SDS011;11388;54.456;9.752;2023-01-09T10:19:26;5.07;;;3.92;;
22441;SDS011;11388;54.456;9.752;2023-01-09T10:29:58;6.22;;;3.95;;
22441;SDS011;11388;54.456;9.752;2023-01-09T10:38:22;7.00;;;3.65;;
22441;SDS011;11388;54.456;9.752;2023-01-09T10:40:59;7.40;;;3.78;;
22441;SDS011;11388;54.456;9.752;2023-01-09T10:43:39;6.72;;;3.72;;
22441;SDS011;11388;54.456;9.752;2023-01-09T10:46:11;5.30;;;3.13;;
22441;SDS011;11388;54.456;9.752;2023-01-09T10:48:44;6.72;;;3.40;;
22441;SDS011;11388;54.456;9.752;2023-01-09T10:51:21;7.57;;;3.50;;
22441;SDS011;11388;54.456;9.752;2023-01-09T10:53:53;7.57;;;3.80;;
22441;SDS011;11388;54.456;9.752;2023-01-09T10:56:21;6.47;;;4.20;;
22441;SDS011;11388;54.456;9.752;2023-01-09T10:58:52;8.48;;;4.80;;
22441;SDS011;11388;54.456;9.752;2023-01-09T11:01:23;7.25;;;4.68;;
22441;SDS011;11388;54.456;9.752;2023-01-09T11:03:50;9.27;;;5.47;;
22441;SDS011;11388;54.456;9.752;2023-01-09T11:06:23;10.77;;;5.63;;
22441;SDS011;11388;54.456;9.752;2023-01-09T11:08:55;8.15;;;5.00;;
22441;SDS011;11388;54.456;9.752;2023-01-09T11:11:33;7.60;;;5.05;;
22441;SDS011;11388;54.456;9.752;2023-01-09T11:16:56;5.95;;;4.55;;
22441;SDS011;11388;54.456;9.752;2023-01-09T11:19:25;8.38;;;4.60;;
22441;SDS011;11388;54.456;9.752;2023-01-09T11:24:39;7.78;;;4.90;;
22441;SDS011;11388;54.456;9.752;2023-01-09T11:29:37;7.60;;;5.10;;
22441;SDS011;11388;54.456;9.752;2023-01-09T11:32:03;7.90;;;5.60;;
22441;SDS011;11388;54.456;9.752;2023-01-09T11:34:29;7.93;;;6.25;;
22441;SDS011;11388;54.456;9.752;2023-01-09T11:37:09;10.32;;;7.50;;
22441;SDS011;11388;54.456;9.752;2023-01-09T11:39:38;11.80;;;7.10;;
22441;SDS011;11388;54.456;9.752;2023-01-09T11:42:17;8.80;;;6.20;;
22441;SDS011;11388;54.456;9.752;2023-01-09T11:47:44;10.63;;;5.50;;
22441;SDS011;11388;54.456;9.752;2023-01-09T11:50:18;7.25;;;5.03;;
22441;SDS011;11388;54.456;9.752;2023-01-09T11:52:47;9.20;;;7.05;;
22441;SDS011;11388;54.456;9.752;2023-01-09T11:55:34;10.95;;;7.53;;
22441;SDS011;11388;54.456;9.752;2023-01-09T11:58:00;13.38;;;8.40;;
22441;SDS011;11388;54.456;9.752;2023-01-09T12:00:27;12.65;;;8.98;;
22441;SDS011;11388;54.456;9.752;2023-01-09T12:03:19;15.30;;;9.23;;
22441;SDS011;11388;54.456;9.752;2023-01-09T12:11:20;12.02;;;9.57;;
22441;SDS011;11388;54.456;9.752;2023-01-09T12:36:08;12.63;;;7.95;;
22441;SDS011;11388;54.456;9.752;2023-01-09T12:43:46;8.52;;;5.68;;
22441;SDS011;11388;54.456;9.752;2023-01-09T12:46:20;9.55;;;6.32;;
22441;SDS011;11388;54.456;9.752;2023-01-09T12:56:50;8.68;;;6.00;;
22441;SDS011;11388;54.456;9.752;2023-01-09T12:59:30;10.63;;;6.30;;
22441;SDS011;11388;54.456;9.752;2023-01-09T13:05:00;9.02;;;6.43;;
22441;SDS011;11388;54.456;9.752;2023-01-09T13:07:38;10.75;;;6.50;;
22441;SDS011;11388;54.456;9.752;2023-01-09T13:12:58;11.88;;;6.88;;
22441;SDS011;11388;54.456;9.752;2023-01-09T13:15:40;13.38;;;6.78;;
22441;SDS011;11388;54.456;9.752;2023-01-09T13:18:11;12.73;;;7.15;;
22441;SDS011;11388;54.456;9.752;2023-01-09T13:20:49;15.32;;;7.60;;
22441;SDS011;11388;54.456;9.752;2023-01-09T13:26:12;13.30;;;7.40;;
22441;SDS011;11388;54.456;9.752;2023-01-09T13:28:51;13.48;;;6.70;;
22441;SDS011;11388;54.456;9.752;2023-01-09T13:34:30;12.40;;;6.60;;
22441;SDS011;11388;54.456;9.752;2023-01-09T13:36:58;9.90;;;5.70;;
22441;SDS011;11388;54.456;9.752;2023-01-09T13:39:26;10.48;;;5.57;;
22441;SDS011;11388;54.456;9.752;2023-01-09T13:41:57;10.07;;;5.50;;
22441;SDS011;11388;54.456;9.752;2023-01-09T13:44:44;8.48;;;5.65;;
22441;SDS011;11388;54.456;9.752;2023-01-09T13:47:16;8.82;;;5.07;;
22441;SDS011;11388;54.456;9.752;2023-01-09T13:57:25;9.30;;;6.28;;
22441;SDS011;11388;54.456;9.752;2023-01-09T14:05:12;14.98;;;9.48;;
22441;SDS011;11388;54.456;9.752;2023-01-09T14:07:40;9.38;;;6.30;;
22441;SDS011;11388;54.456;9.752;2023-01-09T14:10:19;9.00;;;5.10;;
22441;SDS011;11388;54.456;9.752;2023-01-09T14:12:51;7.65;;;5.28;;
22441;SDS011;11388;54.456;9.752;2023-01-09T14:15:22;9.88;;;5.53;;
22441;SDS011;11388;54.456;9.752;2023-01-09T14:18:04;12.43;;;7.30;;
22441;SDS011;11388;54.456;9.752;2023-01-09T14:20:35;10.15;;;5.75;;
22441;SDS011;11388;54.456;9.752;2023-01-09T14:25:40;10.00;;;6.10;;
22441;SDS011;11388;54.456;9.752;2023-01-09T14:28:22;10.73;;;5.45;;
22441;SDS011;11388;54.456;9.752;2023-01-09T14:38:35;7.10;;;4.68;;
22441;SDS011;11388;54.456;9.752;2023-01-09T14:41:08;6.35;;;4.57;;
22441;SDS011;11388;54.456;9.752;2023-01-09T14:49:50;10.18;;;5.00;;
22441;SDS011;11388;54.456;9.752;2023-01-09T14:52:25;8.20;;;5.10;;
22441;SDS011;11388;54.456;9.752;2023-01-09T14:54:56;9.18;;;6.43;;
22441;SDS011;11388;54.456;9.752;2023-01-09T14:57:30;12.40;;;8.25;;
22441;SDS011;11388;54.456;9.752;2023-01-09T15:00:01;9.65;;;6.28;;
22441;SDS011;11388;54.456;9.752;2023-01-09T15:02:33;8.43;;;5.47;;
22441;SDS011;11388;54.456;9.752;2023-01-09T15:05:02;14.30;;;11.18;;
22441;SDS011;11388;54.456;9.752;2023-01-09T15:07:35;15.63;;;10.07;;
22441;SDS011;11388;54.456;9.752;2023-01-09T15:10:13;19.45;;;13.60;;
22441;SDS011;11388;54.456;9.752;2023-01-09T15:12:46;34.38;;;27.48;;
22441;SDS011;11388;54.456;9.752;2023-01-09T15:15:16;25.08;;;20.35;;
22441;SDS011;11388;54.456;9.752;2023-01-09T15:20:23;19.13;;;14.57;;
22441;SDS011;11388;54.456;9.752;2023-01-09T15:22:53;18.88;;;12.80;;
22441;SDS011;11388;54.456;9.752;2023-01-09T15:27:48;9.88;;;7.53;;
22441;SDS011;11388;54.456;9.752;2023-01-09T15:30:36;7.80;;;6.50;;
22441;SDS011;11388;54.456;9.752;2023-01-09T15:33:12;11.60;;;6.75;;
22441;SDS011;11388;54.456;9.752;2023-01-09T15:35:42;8.07;;;6.25;;
22441;SDS011;11388;54.456;9.752;2023-01-09T15:38:10;7.60;;;5.82;;
22441;SDS011;11388;54.456;9.752;2023-01-09T15:40:40;9.75;;;5.90;;
22441;SDS011;11388;54.456;9.752;2023-01-09T15:43:18;8.77;;;5.68;;
22441;SDS011;11388;54.456;9.752;2023-01-09T15:45:44;10.23;;;5.93;;
22441;SDS011;11388;54.456;9.752;2023-01-09T15:50:42;8.55;;;5.50;;
22441;SDS011;11388;54.456;9.752;2023-01-09T15:55:44;8.27;;;5.75;;
22441;SDS011;11388;54.456;9.752;2023-01-09T16:01:00;10.70;;;6.55;;
22441;SDS011;11388;54.456;9.752;2023-01-09T16:03:46;8.73;;;5.97;;
22441;SDS011;11388;54.456;9.752;2023-01-09T16:06:13;8.95;;;5.85;;
22441;SDS011;11388;54.456;9.752;2023-01-09T16:08:52;14.10;;;10.40;;
22441;SDS011;11388;54.456;9.752;2023-01-09T16:14:08;11.73;;;8.20;;
22441;SDS011;11388;54.456;9.752;2023-01-09T16:16:45;9.13;;;6.43;;
22441;SDS011;11388;54.456;9.752;2023-01-09T16:22:16;13.35;;;8.63;;
22441;SDS011;11388;54.456;9.752;2023-01-09T16:24:52;11.75;;;8.70;;
22441;SDS011;11388;54.456;9.752;2023-01-09T16:29:59;13.02;;;11.57;;
22441;SDS011;11388;54.456;9.752;2023-01-09T16:32:31;12.35;;;9.13;;
22441;SDS011;11388;54.456;9.752;2023-01-09T16:34:59;11.80;;;9.45;;
22441;SDS011;11388;54.456;9.752;2023-01-09T16:37:38;12.63;;;9.20;;
22441;SDS011;11388;54.456;9.752;2023-01-09T16:42:33;11.20;;;8.68;;
22441;SDS011;11388;54.456;9.752;2023-01-09T16:45:18;12.85;;;9.25;;
22441;SDS011;11388;54.456;9.752;2023-01-09T16:47:45;13.65;;;10.43;;
22441;SDS011;11388;54.456;9.752;2023-01-09T16:50:11;13.30;;;10.45;;
22441;SDS011;11388;54.456;9.752;2023-01-09T16:52:37;14.55;;;10.90;;
22441;SDS011;11388;54.456;9.752;2023-01-09T16:55:03;13.52;;;10.50;;
22441;SDS011;11388;54.456;9.752;2023-01-09T16:57:29;13.18;;;8.60;;
22441;SDS011;11388;54.456;9.752;2023-01-09T16:59:56;11.38;;;8.70;;
22441;SDS011;11388;54.456;9.752;2023-01-09T17:02:25;11.95;;;9.40;;
22441;SDS011;11388;54.456;9.752;2023-01-09T17:04:51;14.80;;;9.68;;
22441;SDS011;11388;54.456;9.752;2023-01-09T17:07:19;14.18;;;9.90;;
22441;SDS011;11388;54.456;9.752;2023-01-09T17:09:49;12.32;;;10.02;;
22441;SDS011;11388;54.456;9.752;2023-01-09T17:12:19;12.25;;;9.27;;
22441;SDS011;11388;54.456;9.752;2023-01-09T17:14:46;13.75;;;10.43;;
22441;SDS011;11388;54.456;9.752;2023-01-09T17:17:13;11.52;;;9.60;;
22441;SDS011;11388;54.456;9.752;2023-01-09T17:19:40;12.43;;;9.93;;
22441;SDS011;11388;54.456;9.752;2023-01-09T17:22:06;12.20;;;10.30;;
22441;SDS011;11388;54.456;9.752;2023-01-09T17:24:32;14.80;;;11.57;;
22441;SDS011;11388;54.456;9.752;2023-01-09T17:27:18;17.20;;;12.07;;
22441;SDS011;11388;54.456;9.752;2023-01-09T17:30:10;17.63;;;12.73;;
22441;SDS011;11388;54.456;9.752;2023-01-09T17:32:37;13.63;;;10.73;;
22441;SDS011;11388;54.456;9.752;2023-01-09T17:35:02;13.00;;;10.40;;
22441;SDS011;11388;54.456;9.752;2023-01-09T17:37:28;14.30;;;10.65;;
22441;SDS011;11388;54.456;9.752;2023-01-09T17:39:54;10.32;;;9.00;;
22441;SDS011;11388;54.456;9.752;2023-01-09T17:42:25;11.75;;;9.35;;
22441;SDS011;11388;54.456;9.752;2023-01-09T17:44:51;13.13;;;9.38;;
22441;SDS011;11388;54.456;9.752;2023-01-09T17:47:19;9.95;;;8.63;;
22441;SDS011;11388;54.456;9.752;2023-01-09T17:49:45;9.30;;;8.40;;
22441;SDS011;11388;54.456;9.752;2023-01-09T17:52:11;10.23;;;9.10;;